Time;durP1;ratioP1;P1;durP2;ratioP2;P2;SDS_P1;SDS_P2;PMS_P1;PMS_P2;Temp;Humidity;BMP_temperature;BMP_pressure;BME280_temperature;BME280_humidity;BME280_pressure;Samples;Min_cycle;Max_cycle;Signal;HPM_P1;HPM_P2
2023/10/03 00:05:51;;;;;;;24.23;17.60;;;11.10;99.90;;;;;;25590978;23;20016;-48
2023/10/03 00:15:53;;;;;;;28.48;20.52;;;11.00;99.90;;;;;;25591189;23;20005;-54
2023/10/03 00:25:59;;;;;;;17.80;11.98;;;11.00;99.90;;;;;;25591247;23;20005;-53
2023/10/03 00:36:02;;;;;;;22.55;14.20;;;11.00;99.90;;;;;;25590103;23;20021;-51
2023/10/03 00:46:03;;;;;;;22.30;15.95;;;11.10;99.90;;;;;;25588896;23;20075;-51
2023/10/03 00:56:11;;;;;;;25.27;18.00;;;11.10;99.90;;;;;;25563404;23;20444;-58
2023/10/03 01:06:15;;;;;;;24.33;14.95;;;11.20;99.90;;;;;;25604016;23;20009;-58
2023/10/03 01:16:23;;;;;;;18.38;12.15;;;11.30;99.90;;;;;;25588994;23;20005;-50
2023/10/03 01:26:25;;;;;;;14.68;10.23;;;11.20;99.90;;;;;;25629874;23;20502;-53
2023/10/03 01:36:29;;;;;;;21.40;13.60;;;11.10;99.90;;;;;;25588267;23;20013;-52
2023/10/03 01:46:31;;;;;;;26.65;17.50;;;11.30;99.90;;;;;;25588000;23;20005;-48
2023/10/03 01:56:34;;;;;;;25.25;15.70;;;11.40;99.90;;;;;;25587497;23;20029;-50
2023/10/03 02:06:36;;;;;;;17.00;12.27;;;11.40;99.90;;;;;;25561070;23;20117;-51
2023/10/03 02:16:43;;;;;;;21.30;15.30;;;11.30;99.90;;;;;;25561361;23;20408;-59
2023/10/03 02:26:45;;;;;;;22.05;16.17;;;11.40;99.90;;;;;;25602243;23;20059;-58
2023/10/03 02:36:48;;;;;;;27.70;17.75;;;11.40;99.90;;;;;;25560377;23;20060;-53
2023/10/03 02:46:50;;;;;;;24.23;17.08;;;11.50;99.90;;;;;;25560787;23;20436;-51
2023/10/03 02:56:53;;;;;;;30.70;20.42;;;11.50;99.90;;;;;;25560637;23;20321;-52
2023/10/03 03:07:02;;;;;;;28.48;19.20;;;11.60;99.90;;;;;;25592970;23;20001;-52
2023/10/03 03:17:13;;;;;;;26.60;18.55;;;11.60;99.90;;;;;;25608527;23;20306;-52
2023/10/03 03:27:16;;;;;;;19.00;14.35;;;11.70;99.90;;;;;;25609663;23;20511;-58
2023/10/03 03:37:22;;;;;;;20.10;14.32;;;11.50;99.90;;;;;;25591894;23;20013;-53
2023/10/03 03:47:23;;;;;;;20.02;15.05;;;11.50;99.90;;;;;;25591818;23;20009;-52
2023/10/03 03:57:25;;;;;;;26.90;16.40;;;11.40;99.90;;;;;;25591646;23;20005;-49
2023/10/03 04:07:29;;;;;;;28.83;19.42;;;11.40;99.90;;;;;;25590782;23;20009;-51
2023/10/03 04:17:33;;;;;;;26.92;14.98;;;11.50;99.90;;;;;;25590229;23;20433;-51
2023/10/03 04:27:35;;;;;;;16.85;11.55;;;11.60;99.90;;;;;;25591118;23;20486;-52
2023/10/03 04:37:39;;;;;;;17.63;11.52;;;11.40;99.90;;;;;;25589440;23;20522;-48
2023/10/03 04:47:41;;;;;;;16.02;9.27;;;10.90;99.90;;;;;;25589371;23;20005;-58
2023/10/03 04:57:47;;;;;;;16.73;10.68;;;10.70;99.90;;;;;;25589208;23;20100;-51
2023/10/03 05:07:53;;;;;;;15.55;10.27;;;10.60;99.90;;;;;;25629822;23;20001;-59
2023/10/03 05:17:56;;;;;;;13.63;9.02;;;10.40;99.90;;;;;;25629493;23;20013;-53
2023/10/03 05:27:59;;;;;;;11.05;6.75;;;10.40;99.90;;;;;;25587793;23;20327;-49
2023/10/03 05:38:06;;;;;;;14.88;9.70;;;10.50;99.90;;;;;;25584168;23;20013;-50
2023/10/03 05:48:08;;;;;;;14.02;8.50;;;10.50;99.90;;;;;;25630145;23;20013;-53
2023/10/03 05:58:11;;;;;;;12.55;7.13;;;10.60;99.90;;;;;;25587538;23;20008;-48
2023/10/03 06:08:13;;;;;;;13.80;7.80;;;10.70;99.90;;;;;;25587278;23;20220;-58
2023/10/03 06:18:16;;;;;;;14.82;9.13;;;10.90;99.90;;;;;;25585725;23;20416;-59
2023/10/03 06:28:18;;;;;;;14.07;10.30;;;11.00;99.90;;;;;;25587148;23;20474;-50
2023/10/03 06:38:23;;;;;;;17.60;11.43;;;11.20;99.90;;;;;;25589942;23;20433;-58
2023/10/03 06:48:26;;;;;;;18.83;12.15;;;11.40;99.90;;;;;;25594357;23;20054;-50
2023/10/03 06:58:28;;;;;;;17.77;12.30;;;11.70;99.90;;;;;;25593816;23;20005;-51
2023/10/03 07:08:30;;;;;;;17.23;12.18;;;12.40;99.90;;;;;;25593509;23;20607;-59
2023/10/03 14:36:26;;;;;;;72.45;53.22;;;19.60;99.90;;;;;;25637415;22;1566607;-55
2023/10/03 14:46:28;;;;;;;68.80;52.65;;;19.60;99.90;;;;;;25742832;23;20023;-62
2023/10/03 14:56:31;;;;;;;69.30;53.97;;;19.40;99.90;;;;;;25743629;23;20019;-53
2023/10/03 15:06:42;;;;;;;71.32;53.08;;;19.40;99.90;;;;;;25784590;23;20035;-62
2023/10/03 15:16:44;;;;;;;64.22;49.88;;;19.30;99.90;;;;;;25743030;23;20452;-62
2023/10/03 15:26:46;;;;;;;70.35;52.15;;;18.90;99.90;;;;;;25745220;23;20005;-51
2023/10/03 15:36:48;;;;;;;71.07;53.17;;;18.50;99.90;;;;;;25882607;22;20008;-60
2023/10/03 15:46:50;;;;;;;73.97;56.17;;;17.80;99.90;;;;;;25838742;23;20588;-53
2023/10/03 15:56:52;;;;;;;82.43;59.60;;;16.90;99.90;;;;;;25838871;23;20030;-59
2023/10/03 16:06:54;;;;;;;93.78;63.45;;;16.20;99.90;;;;;;25838406;23;20000;-61
2023/10/03 16:17:00;;;;;;;100.82;67.45;;;15.70;99.90;;;;;;25838083;23;20000;-50
2023/10/03 16:27:03;;;;;;;117.40;74.95;;;15.20;99.90;;;;;;25877102;23;20430;-50
2023/10/03 16:37:05;;;;;;;121.25;75.50;;;14.70;99.90;;;;;;25837677;23;20377;-58
2023/10/03 16:47:07;;;;;;;133.15;79.28;;;14.10;99.90;;;;;;25837149;23;20439;-49
2023/10/03 16:57:09;;;;;;;139.00;82.18;;;13.60;99.90;;;;;;25837237;23;20061;-59
2023/10/03 17:07:11;;;;;;;134.90;77.10;;;13.30;99.90;;;;;;25834686;23;20008;-58
2023/10/03 17:17:13;;;;;;;152.55;86.03;;;13.00;99.90;;;;;;25834393;23;20324;-53
2023/10/03 17:27:15;;;;;;;121.32;72.00;;;12.80;99.90;;;;;;25833723;23;20012;-50
2023/10/03 17:37:17;;;;;;;128.07;72.75;;;12.60;99.90;;;;;;25833606;23;20008;-52
2023/10/03 17:47:18;;;;;;;145.07;80.97;;;12.50;99.90;;;;;;25833031;23;20000;-47
2023/10/03 17:57:20;;;;;;;134.70;75.72;;;12.50;99.90;;;;;;25833077;23;20016;-51
2023/10/03 18:07:22;;;;;;;134.88;74.90;;;12.40;99.90;;;;;;25832164;23;20004;-58
2023/10/03 18:17:23;;;;;;;130.73;72.63;;;12.20;99.90;;;;;;25832339;23;20015;-58
2023/10/03 18:27:25;;;;;;;170.27;89.90;;;12.10;99.90;;;;;;25832148;23;20016;-52
2023/10/03 18:37:33;;;;;;;142.40;80.57;;;12.10;99.90;;;;;;25831641;23;20012;-60
2023/10/03 18:47:35;;;;;;;146.57;82.20;;;12.00;99.90;;;;;;25873983;23;20007;-59
2023/10/03 18:57:37;;;;;;;146.80;80.97;;;12.00;99.90;;;;;;25832008;23;20082;-49
2023/10/03 19:07:39;;;;;;;135.18;77.30;;;12.10;99.90;;;;;;25834692;23;20212;-59
2023/10/03 19:17:41;;;;;;;136.98;75.63;;;12.20;99.90;;;;;;25838476;23;20062;-60
2023/10/03 19:27:43;;;;;;;143.93;78.80;;;12.20;99.90;;;;;;25836192;23;20004;-52
2023/10/03 19:37:45;;;;;;;143.93;77.97;;;12.10;99.90;;;;;;25837917;23;20011;-61
2023/10/03 19:47:47;;;;;;;138.18;76.03;;;11.90;99.90;;;;;;25838161;23;20309;-51
2023/10/03 19:57:49;;;;;;;138.00;76.40;;;11.80;99.90;;;;;;25837930;23;20058;-51
2023/10/03 20:07:51;;;;;;;123.63;67.50;;;11.70;99.90;;;;;;25837231;23;20000;-60
2023/10/03 20:17:53;;;;;;;126.40;68.05;;;11.70;99.90;;;;;;25836802;23;20062;-60
2023/10/03 20:27:56;;;;;;;128.43;72.43;;;11.80;99.90;;;;;;25836094;23;20012;-60
2023/10/03 20:37:57;;;;;;;130.52;68.90;;;11.70;99.90;;;;;;25835743;23;20058;-52
2023/10/03 20:47:59;;;;;;;131.10;68.93;;;11.70;99.90;;;;;;25808554;23;20047;-59
2023/10/03 20:58:03;;;;;;;130.05;68.50;;;11.60;99.90;;;;;;25834434;23;20077;-59
2023/10/03 21:08:08;;;;;;;140.75;73.72;;;11.70;99.90;;;;;;25835012;23;20008;-59
2023/10/03 21:18:10;;;;;;;149.25;79.38;;;11.80;99.90;;;;;;25834465;23;20019;-52
2023/10/03 21:28:12;;;;;;;151.27;77.07;;;11.80;99.90;;;;;;25835011;23;20015;-50
2023/10/03 21:38:14;;;;;;;157.02;77.57;;;11.90;99.90;;;;;;25833541;23;20008;-59
2023/10/03 21:48:16;;;;;;;135.77;71.15;;;11.80;99.90;;;;;;25833917;23;20000;-61
2023/10/03 21:58:17;;;;;;;131.60;68.53;;;11.70;99.90;;;;;;25833718;23;20046;-60
2023/10/03 22:08:19;;;;;;;124.82;66.05;;;11.70;99.90;;;;;;25835285;23;20031;-53
2023/10/03 22:18:21;;;;;;;141.77;71.03;;;11.60;99.90;;;;;;25835475;23;20008;-60
2023/10/03 22:28:23;;;;;;;139.90;71.25;;;11.60;99.90;;;;;;25834128;23;20059;-60
2023/10/03 22:38:24;;;;;;;155.50;77.97;;;11.50;99.90;;;;;;25833041;23;20066;-59
2023/10/03 22:48:26;;;;;;;126.85;69.03;;;11.50;99.90;;;;;;25841327;23;20004;-61
2023/10/03 22:58:28;;;;;;;129.90;69.85;;;11.50;99.90;;;;;;25840504;23;20331;-60
2023/10/03 23:08:30;;;;;;;153.90;76.30;;;11.50;99.90;;;;;;25840241;23;20118;-50
2023/10/03 23:18:32;;;;;;;135.05;71.20;;;11.40;99.90;;;;;;25839839;23;20000;-60
2023/10/03 23:28:34;;;;;;;141.63;71.28;;;11.40;99.90;;;;;;25839517;23;20019;-53
2023/10/03 23:38:37;;;;;;;139.60;73.13;;;11.50;99.90;;;;;;25840812;23;20015;-52
2023/10/03 23:48:41;;;;;;;116.25;61.85;;;11.60;99.90;;;;;;25838952;23;20305;-59
2023/10/03 23:58:49;;;;;;;112.93;58.70;;;11.60;99.90;;;;;;25838386;23;20054;-59
